createdAt,value
2018-09-27T00:03:43.092Z,71.60
2018-09-27T00:07:40.172Z,71.70
2018-09-27T00:11:36.439Z,71.80
2018-09-27T00:15:33.190Z,71.80
2018-09-27T00:19:29.817Z,71.90
2018-09-27T00:23:26.596Z,71.90
2018-09-27T00:27:23.035Z,72.70
2018-09-27T00:31:19.832Z,72.10
2018-09-27T00:35:16.132Z,72.10
2018-09-27T00:39:13.854Z,72.10
2018-09-27T00:43:10.049Z,72.20
2018-09-27T00:47:06.686Z,72.10
2018-09-27T00:51:04.364Z,72.20
2018-09-27T00:55:01.109Z,72.20
2018-09-27T00:58:57.761Z,72.20
2018-09-27T01:02:54.250Z,72.30
2018-09-27T01:06:51.008Z,72.30
2018-09-27T01:10:48.838Z,72.40
2018-09-27T01:14:45.224Z,72.50
2018-09-27T01:18:41.812Z,72.50
2018-09-27T01:22:42.407Z,72.50
2018-09-27T01:26:41.701Z,72.50
2018-09-27T01:30:38.434Z,72.60
2018-09-27T01:34:35.053Z,72.60
2018-09-27T01:38:31.253Z,72.70
2018-09-27T01:42:27.962Z,72.70
2018-09-27T01:46:24.600Z,72.70
2018-09-27T01:50:21.252Z,72.80
2018-09-27T01:54:17.964Z,72.80
2018-09-27T01:58:14.529Z,73.00
2018-09-27T02:02:10.754Z,72.90
2018-09-27T02:06:13.336Z,72.90
2018-09-27T02:10:09.545Z,73.00
2018-09-27T02:14:05.941Z,73.00
2018-09-27T02:18:02.696Z,73.10
2018-09-27T02:21:59.545Z,73.10
2018-09-27T02:25:56.186Z,73.20
2018-09-27T02:29:53.108Z,73.20
2018-09-27T02:33:51.896Z,73.30
2018-09-27T02:37:48.573Z,73.30
2018-09-27T02:41:45.245Z,73.30
2018-09-27T02:45:42.034Z,73.30
2018-09-27T02:49:38.700Z,73.40
2018-09-27T02:53:35.293Z,72.80
2018-09-27T02:57:32.130Z,73.50
2018-09-27T03:01:28.745Z,73.50
2018-09-27T03:05:25.500Z,73.50
2018-09-27T03:09:22.344Z,73.60
2018-09-27T03:13:19.175Z,73.60
2018-09-27T03:17:15.833Z,73.60
2018-09-27T03:21:12.189Z,73.60
2018-09-27T03:25:09.087Z,73.60
2018-09-27T03:29:05.719Z,73.60
2018-09-27T03:33:08.427Z,73.70
2018-09-27T03:37:05.049Z,74.40
2018-09-27T03:41:01.726Z,73.70
2018-09-27T03:44:58.344Z,73.80
2018-09-27T03:48:54.984Z,73.80
2018-09-27T03:52:52.126Z,73.80
2018-09-27T04:03:14.594Z,73.80
2018-09-27T04:07:13.289Z,73.90
2018-09-27T04:11:09.587Z,73.90
2018-09-27T04:15:06.789Z,73.90
2018-09-27T04:19:04.212Z,74.00
2018-09-27T04:23:00.537Z,74.00
2018-09-27T04:26:57.561Z,74.00
2018-09-27T04:30:54.868Z,74.10
2018-09-27T04:34:51.366Z,74.00
2018-09-27T04:38:47.888Z,74.00
2018-09-27T04:42:45.634Z,74.10
2018-09-27T04:46:45.098Z,74.00
2018-09-27T04:50:41.637Z,74.10
2018-09-27T04:54:38.349Z,74.10
2018-09-27T04:58:35.949Z,74.10
2018-09-27T05:02:32.853Z,74.10
2018-09-27T05:06:29.661Z,74.20
2018-09-27T05:10:27.258Z,74.10
2018-09-27T05:14:23.753Z,74.10
2018-09-27T05:18:20.057Z,74.10
2018-09-27T05:22:16.521Z,74.20
2018-09-27T05:26:13.207Z,74.20
2018-09-27T05:30:09.802Z,74.20
2018-09-27T05:34:07.712Z,74.20
2018-09-27T05:38:04.420Z,74.30
2018-09-27T05:42:01.396Z,74.30
2018-09-27T05:45:58.336Z,74.30
2018-09-27T05:49:54.973Z,74.30
2018-09-27T05:53:52.000Z,74.30
2018-09-27T05:57:49.508Z,75.00
2018-09-27T06:01:46.302Z,74.30
2018-09-27T06:05:44.486Z,74.20
2018-09-27T06:09:41.294Z,74.30
2018-09-27T06:13:39.909Z,74.30
2018-09-27T06:17:36.702Z,74.30
2018-09-27T06:21:33.655Z,74.30
2018-09-27T06:25:30.284Z,74.40
2018-09-27T06:29:27.199Z,74.40
2018-09-27T06:33:24.006Z,74.40
2018-09-27T06:37:21.312Z,74.40
2018-09-27T06:41:20.835Z,74.40
2018-09-27T06:45:17.458Z,74.30
2018-09-27T06:49:14.326Z,74.30
2018-09-27T06:53:11.790Z,74.40
2018-09-27T06:57:08.607Z,74.30
2018-09-27T07:01:06.234Z,74.30
2018-09-27T07:05:04.284Z,74.30
2018-09-27T07:09:07.352Z,74.30
2018-09-27T07:13:03.808Z,74.30
2018-09-27T07:17:00.465Z,74.20
2018-09-27T07:20:56.926Z,74.20
2018-09-27T07:24:58.391Z,74.20
2018-09-27T07:28:55.097Z,74.20
2018-09-27T07:32:51.807Z,74.20
2018-09-27T07:36:48.497Z,74.10
2018-09-27T07:40:45.353Z,74.20
2018-09-27T07:44:42.257Z,74.20
2018-09-27T07:48:39.126Z,74.20
2018-09-27T07:52:35.841Z,74.20
2018-09-27T07:56:32.978Z,74.10
2018-09-27T08:00:29.623Z,74.10
2018-09-27T08:04:26.774Z,74.10
2018-09-27T08:08:23.911Z,74.10
2018-09-27T08:12:20.849Z,75.80
2018-09-27T08:16:17.473Z,75.70
2018-09-27T08:20:14.164Z,76.50
2018-09-27T08:24:10.872Z,83.30
2018-09-27T08:28:08.397Z,90.60
2018-09-27T08:32:05.346Z,91.30
2018-09-27T08:36:02.917Z,90.50
2018-09-27T08:39:59.874Z,88.90
2018-09-27T08:43:56.817Z,88.30
2018-09-27T08:47:55.484Z,87.10
2018-09-27T08:51:52.117Z,86.60
2018-09-27T08:55:48.604Z,86.30
2018-09-27T08:59:45.048Z,85.80
2018-09-27T09:03:46.443Z,86.20
2018-09-27T09:07:42.854Z,86.60
2018-09-27T09:15:45.685Z,85.10
2018-09-27T09:19:42.757Z,84.90
2018-09-27T09:23:43.060Z,85.30
2018-09-27T09:27:41.821Z,85.20
2018-09-27T09:31:38.640Z,85.20
2018-09-27T09:35:35.860Z,84.40
2018-09-27T09:39:34.030Z,84.20
2018-09-27T09:43:30.782Z,83.80
2018-09-27T09:47:28.601Z,83.70
2018-09-27T09:51:26.458Z,83.30
2018-09-27T09:55:28.624Z,83.80
2018-09-27T09:59:25.933Z,83.40
2018-09-27T10:03:22.539Z,83.20
2018-09-27T10:07:18.889Z,83.60
2018-09-27T10:11:15.668Z,83.10
2018-09-27T10:15:12.461Z,82.60
2018-09-27T10:19:11.465Z,82.50
2018-09-27T10:23:08.524Z,82.50
2018-09-27T10:27:08.505Z,81.80
2018-09-27T10:31:05.156Z,81.90
2018-09-27T10:35:02.024Z,82.00
2018-09-27T10:39:02.209Z,82.40
2018-09-27T10:42:59.493Z,81.50
2018-09-27T10:46:58.992Z,82.30
2018-09-27T10:50:56.494Z,82.10
2018-09-27T10:54:53.269Z,82.70
2018-09-27T10:58:49.764Z,82.90
2018-09-27T11:02:47.896Z,82.00
2018-09-27T11:06:45.229Z,80.90
2018-09-27T11:10:42.801Z,81.10
2018-09-27T11:14:47.102Z,79.90
2018-09-27T11:18:43.716Z,79.70
2018-09-27T11:22:40.947Z,79.80
2018-09-27T11:26:37.886Z,79.70
2018-09-27T11:30:35.528Z,79.10
2018-09-27T11:34:32.267Z,80.00
2018-09-27T11:38:30.327Z,79.60
2018-09-27T11:42:27.428Z,79.40
2018-09-27T11:46:24.460Z,81.20
2018-09-27T11:50:24.034Z,79.30
2018-09-27T11:54:20.667Z,78.70
2018-09-27T11:58:18.267Z,79.10
2018-09-27T12:02:14.912Z,77.90
2018-09-27T12:06:11.675Z,78.80
2018-09-27T12:10:08.131Z,78.40
2018-09-27T12:14:04.872Z,78.50
2018-09-27T12:18:01.171Z,78.40
2018-09-27T12:21:57.490Z,78.40
2018-09-27T12:25:54.818Z,78.20
2018-09-27T12:29:51.265Z,78.50
2018-09-27T12:33:48.153Z,78.60
2018-09-27T12:37:45.121Z,78.10
2018-09-27T12:41:43.859Z,77.60
2018-09-27T12:45:41.215Z,76.80
2018-09-27T12:49:38.123Z,76.60
2018-09-27T12:53:35.372Z,77.50
2018-09-27T12:57:32.100Z,78.00
2018-09-27T13:01:28.923Z,78.00
2018-09-27T13:05:25.242Z,77.70
2018-09-27T13:09:21.965Z,77.40
2018-09-27T13:13:19.660Z,77.40
2018-09-27T13:17:16.024Z,77.30
2018-09-27T13:21:12.299Z,77.20
2018-09-27T13:25:10.833Z,76.90
2018-09-27T13:29:08.320Z,76.60
2018-09-27T13:33:05.573Z,76.30
2018-09-27T13:37:02.658Z,76.10
2018-09-27T13:40:58.976Z,75.90
2018-09-27T13:44:55.357Z,75.70
2018-09-27T13:48:52.401Z,75.50
2018-09-27T13:52:52.218Z,75.30
2018-09-27T13:57:00.931Z,75.30
2018-09-27T14:00:57.776Z,75.00
2018-09-27T14:04:57.933Z,75.00
2018-09-27T14:08:57.313Z,74.80
2018-09-27T14:12:54.250Z,74.70
2018-09-27T14:16:53.047Z,74.80
2018-09-27T14:20:49.663Z,75.50
2018-09-27T14:24:46.788Z,76.00
2018-09-27T14:28:44.210Z,76.30
2018-09-27T14:32:41.174Z,76.30
2018-09-27T14:36:38.023Z,76.20
2018-09-27T14:40:40.726Z,76.00
2018-09-27T14:44:37.409Z,76.10
2018-09-27T14:48:33.816Z,76.20
2018-09-27T14:52:30.693Z,76.00
2018-09-27T14:56:27.331Z,76.10
2018-09-27T15:00:27.086Z,78.80
2018-09-27T15:04:24.428Z,85.70
2018-09-27T15:08:20.976Z,90.70
2018-09-27T15:12:17.749Z,91.40
2018-09-27T15:16:14.455Z,90.10
2018-09-27T15:20:12.416Z,87.70
2018-09-27T15:24:09.567Z,85.60
2018-09-27T15:28:07.829Z,84.10
2018-09-27T15:32:08.146Z,85.90
2018-09-27T15:36:08.861Z,84.90
2018-09-27T15:40:07.393Z,83.50
2018-09-27T15:44:04.642Z,83.60
2018-09-27T15:48:01.319Z,83.00
2018-09-27T15:51:58.140Z,82.80
2018-09-27T15:55:54.582Z,82.30
2018-09-27T15:59:51.684Z,81.90
2018-09-27T16:03:48.393Z,81.30
2018-09-27T16:07:45.023Z,80.90
2018-09-27T16:11:43.060Z,80.00
2018-09-27T16:15:39.818Z,78.20
2018-09-27T16:19:37.264Z,75.80
2018-09-27T16:23:34.603Z,74.70
2018-09-27T16:27:31.280Z,74.00
2018-09-27T16:31:27.904Z,73.80
2018-09-27T16:35:24.803Z,73.70
2018-09-27T16:39:21.285Z,73.80
2018-09-27T16:43:17.954Z,78.50
2018-09-27T16:47:15.058Z,78.10
2018-09-27T16:51:12.782Z,77.20
2018-09-27T16:55:09.096Z,77.40
2018-09-27T16:59:05.714Z,77.60
2018-09-27T17:03:02.767Z,82.10
2018-09-27T17:06:59.896Z,88.80
2018-09-27T17:10:57.455Z,91.80
2018-09-27T17:15:01.049Z,90.70
2018-09-27T17:18:57.582Z,90.00
2018-09-27T17:22:54.208Z,88.80
2018-09-27T17:26:50.956Z,87.70
2018-09-27T17:30:47.948Z,86.90
2018-09-27T17:34:44.784Z,86.60
2018-09-27T17:38:42.784Z,85.50
2018-09-27T17:42:39.648Z,85.00
2018-09-27T17:46:37.173Z,86.00
2018-09-27T17:50:41.053Z,84.80
2018-09-27T17:54:45.858Z,85.00
2018-09-27T17:58:42.827Z,85.10
2018-09-27T18:02:40.344Z,85.10
2018-09-27T18:06:49.175Z,84.60
2018-09-27T18:10:50.637Z,84.00
2018-09-27T18:14:47.587Z,84.60
2018-09-27T18:18:44.624Z,85.30
2018-09-27T18:22:41.801Z,85.30
2018-09-27T18:26:38.432Z,83.80
2018-09-27T18:30:37.002Z,83.90
2018-09-27T18:34:35.245Z,84.40
2018-09-27T18:38:32.582Z,84.00
2018-09-27T18:42:29.811Z,84.70
2018-09-27T18:46:27.821Z,83.40
2018-09-27T18:50:29.620Z,82.80
2018-09-27T18:54:26.660Z,82.50
2018-09-27T18:58:23.667Z,84.10
2018-09-27T19:02:22.353Z,82.50
2018-09-27T19:06:19.041Z,83.20
2018-09-27T19:10:15.716Z,83.20
2018-09-27T19:14:12.422Z,83.00
2018-09-27T19:18:09.525Z,83.10
2018-09-27T19:22:06.693Z,83.40
2018-09-27T19:26:03.334Z,83.30
2018-09-27T19:29:59.586Z,82.60
2018-09-27T19:33:56.276Z,83.00
2018-09-27T19:37:53.190Z,83.50
2018-09-27T19:41:49.853Z,83.50
2018-09-27T19:45:47.522Z,83.80
2018-09-27T19:49:44.260Z,82.80
2018-09-27T19:53:41.250Z,82.20
2018-09-27T19:57:41.076Z,82.90
2018-09-27T20:01:37.869Z,82.30
2018-09-27T20:05:34.654Z,81.10
2018-09-27T20:09:31.676Z,81.40
2018-09-27T20:13:28.389Z,80.10
2018-09-27T20:17:25.441Z,80.20
2018-09-27T20:21:22.104Z,80.90
2018-09-27T20:25:18.940Z,81.80
2018-09-27T20:29:15.788Z,82.20
2018-09-27T20:33:12.436Z,83.00
2018-09-27T20:37:08.671Z,82.90
2018-09-27T20:41:06.176Z,82.90
2018-09-27T20:45:02.805Z,82.90
2018-09-27T20:48:59.333Z,82.70
2018-09-27T20:52:55.960Z,82.50
2018-09-27T20:56:53.000Z,82.40
2018-09-27T21:00:49.596Z,82.10
2018-09-27T21:04:46.244Z,82.20
2018-09-27T21:08:43.956Z,82.40
2018-09-27T21:12:40.608Z,82.40
2018-09-27T21:16:37.416Z,82.50
2018-09-27T21:20:33.969Z,82.60
2018-09-27T21:24:30.681Z,82.50
2018-09-27T21:28:27.215Z,82.70
2018-09-27T21:32:23.920Z,82.80
2018-09-27T21:36:20.377Z,82.80
2018-09-27T21:40:17.207Z,82.90
2018-09-27T21:44:13.873Z,83.00
2018-09-27T21:48:10.487Z,83.00
2018-09-27T21:52:08.592Z,83.00
2018-09-27T21:56:05.134Z,83.20
2018-09-27T22:00:01.998Z,83.10
2018-09-27T22:03:58.741Z,83.00
2018-09-27T22:07:55.338Z,83.00
2018-09-27T22:11:51.661Z,82.90
2018-09-27T22:15:48.010Z,82.90
2018-09-27T22:19:44.259Z,82.80
2018-09-27T22:23:41.048Z,83.00
2018-09-27T22:27:37.878Z,83.20
2018-09-27T22:31:34.424Z,83.40
2018-09-27T22:35:31.215Z,83.40
2018-09-27T22:39:27.892Z,83.40
2018-09-27T22:43:24.781Z,83.50
2018-09-27T22:47:21.416Z,83.40
2018-09-27T22:51:18.063Z,83.50
2018-09-27T22:55:14.621Z,83.40
2018-09-27T22:59:11.555Z,83.50
2018-09-27T23:03:08.505Z,83.40
2018-09-27T23:07:05.190Z,83.40
2018-09-27T23:11:01.664Z,83.30
2018-09-27T23:14:58.520Z,83.30
2018-09-27T23:18:55.551Z,83.10
2018-09-27T23:22:52.173Z,83.00
2018-09-27T23:26:48.845Z,83.00
2018-09-27T23:30:45.910Z,83.00
2018-09-27T23:34:42.602Z,83.00
2018-09-27T23:38:40.061Z,83.00
2018-09-27T23:42:36.570Z,82.90
2018-09-27T23:46:32.782Z,83.00
2018-09-27T23:50:29.613Z,82.90
2018-09-27T23:54:27.951Z,82.90
2018-09-27T23:58:24.272Z,82.90
